sensor_id;sensor_type;location;lat;lon;timestamp;pressure;altitude;pressure_sealevel;temperature;humidity
56719;BME280;42597;40.636;0.278;2022-11-22T00:01:50;96427.84;;;12.75;60.21
56719;BME280;42597;40.636;0.278;2022-11-22T00:04:16;96440.09;;;13.17;61.20
56719;BME280;42597;40.636;0.278;2022-11-22T00:06:41;96453.41;;;13.37;62.79
56719;BME280;42597;40.636;0.278;2022-11-22T00:09:07;96425.16;;;13.45;62.19
56719;BME280;42597;40.636;0.278;2022-11-22T00:11:33;96420.22;;;12.92;61.71
56719;BME280;42597;40.636;0.278;2022-11-22T00:13:58;96469.19;;;11.53;55.53
56719;BME280;42597;40.636;0.278;2022-11-22T00:16:24;96540.94;;;12.38;54.88
56719;BME280;42597;40.636;0.278;2022-11-22T00:18:49;96495.09;;;13.11;60.57
56719;BME280;42597;40.636;0.278;2022-11-22T00:21:15;96522.75;;;13.30;64.85
56719;BME280;42597;40.636;0.278;2022-11-22T00:23:41;96499.44;;;12.30;52.10
56719;BME280;42597;40.636;0.278;2022-11-22T00:26:06;96534.03;;;12.84;54.00
56719;BME280;42597;40.636;0.278;2022-11-22T00:28:39;96561.47;;;12.79;58.29
56719;BME280;42597;40.636;0.278;2022-11-22T00:31:04;96537.88;;;12.83;62.09
56719;BME280;42597;40.636;0.278;2022-11-22T00:33:30;96561.34;;;13.13;62.82
56719;BME280;42597;40.636;0.278;2022-11-22T00:35:56;96552.34;;;12.57;54.92
56719;BME280;42597;40.636;0.278;2022-11-22T00:38:21;96557.53;;;13.21;55.86
56719;BME280;42597;40.636;0.278;2022-11-22T00:40:47;96565.13;;;12.57;62.92
56719;BME280;42597;40.636;0.278;2022-11-22T00:43:12;96574.44;;;11.89;53.10
56719;BME280;42597;40.636;0.278;2022-11-22T00:45:41;96588.09;;;13.66;60.41
56719;BME280;42597;40.636;0.278;2022-11-22T00:48:07;96609.31;;;13.02;61.92
56719;BME280;42597;40.636;0.278;2022-11-22T00:50:32;96607.22;;;12.10;62.49
56719;BME280;42597;40.636;0.278;2022-11-22T00:52:58;96605.91;;;12.34;57.05
56719;BME280;42597;40.636;0.278;2022-11-22T00:55:23;96607.41;;;11.94;62.42
56719;BME280;42597;40.636;0.278;2022-11-22T00:57:49;96586.03;;;14.22;62.89
56719;BME280;42597;40.636;0.278;2022-11-22T01:00:15;96605.84;;;11.67;58.84
56719;BME280;42597;40.636;0.278;2022-11-22T01:02:41;96601.41;;;13.30;57.80
56719;BME280;42597;40.636;0.278;2022-11-22T01:05:07;96616.81;;;13.19;61.77
56719;BME280;42597;40.636;0.278;2022-11-22T01:07:32;96613.88;;;12.91;59.05
56719;BME280;42597;40.636;0.278;2022-11-22T01:09:58;96611.75;;;12.36;64.70
56719;BME280;42597;40.636;0.278;2022-11-22T01:12:24;96621.31;;;13.45;61.15
56719;BME280;42597;40.636;0.278;2022-11-22T01:14:49;96610.53;;;13.56;63.48
56719;BME280;42597;40.636;0.278;2022-11-22T01:17:15;96595.91;;;13.78;64.30
56719;BME280;42597;40.636;0.278;2022-11-22T01:19:41;96646.41;;;11.67;55.75
56719;BME280;42597;40.636;0.278;2022-11-22T01:22:06;96640.47;;;12.10;62.06
56719;BME280;42597;40.636;0.278;2022-11-22T01:24:32;96637.94;;;12.25;60.10
56719;BME280;42597;40.636;0.278;2022-11-22T01:26:57;96634.59;;;13.61;66.32
56719;BME280;42597;40.636;0.278;2022-11-22T01:29:23;96630.84;;;12.47;53.58
56719;BME280;42597;40.636;0.278;2022-11-22T01:31:49;96632.84;;;13.31;64.32
56719;BME280;42597;40.636;0.278;2022-11-22T01:34:14;96634.88;;;13.01;62.93
56719;BME280;42597;40.636;0.278;2022-11-22T01:36:40;96634.78;;;12.19;59.70
56719;BME280;42597;40.636;0.278;2022-11-22T01:39:06;96643.09;;;12.71;64.10
56719;BME280;42597;40.636;0.278;2022-11-22T01:41:31;96661.06;;;13.71;65.71
56719;BME280;42597;40.636;0.278;2022-11-22T01:43:57;96661.09;;;13.30;63.64
56719;BME280;42597;40.636;0.278;2022-11-22T01:46:28;96640.03;;;13.61;59.20
56719;BME280;42597;40.636;0.278;2022-11-22T01:49:10;96667.34;;;12.94;63.60
56719;BME280;42597;40.636;0.278;2022-11-22T01:51:40;96629.44;;;13.01;57.94
56719;BME280;42597;40.636;0.278;2022-11-22T01:54:14;96626.47;;;14.38;64.66
56719;BME280;42597;40.636;0.278;2022-11-22T01:56:43;96648.22;;;12.79;66.29
56719;BME280;42597;40.636;0.278;2022-11-22T01:59:14;96623.81;;;13.72;61.96
56719;BME280;42597;40.636;0.278;2022-11-22T02:01:40;96650.31;;;13.93;62.37
56719;BME280;42597;40.636;0.278;2022-11-22T02:04:08;96640.63;;;12.96;56.11
56719;BME280;42597;40.636;0.278;2022-11-22T02:09:22;96647.47;;;11.85;52.83
56719;BME280;42597;40.636;0.278;2022-11-22T02:11:50;96625.63;;;13.09;56.22
56719;BME280;42597;40.636;0.278;2022-11-22T02:14:20;96647.34;;;12.34;57.99
56719;BME280;42597;40.636;0.278;2022-11-22T02:16:47;96650.00;;;12.65;63.67
56719;BME280;42597;40.636;0.278;2022-11-22T02:19:29;96623.03;;;12.08;54.92
56719;BME280;42597;40.636;0.278;2022-11-22T02:22:05;96655.41;;;11.48;54.41
56719;BME280;42597;40.636;0.278;2022-11-22T02:24:47;96665.47;;;14.81;60.90
56719;BME280;42597;40.636;0.278;2022-11-22T02:27:16;96666.34;;;11.55;54.06
56719;BME280;42597;40.636;0.278;2022-11-22T02:29:42;96671.84;;;12.79;59.47
56719;BME280;42597;40.636;0.278;2022-11-22T02:32:08;96699.78;;;12.19;50.49
56719;BME280;42597;40.636;0.278;2022-11-22T02:34:45;96653.63;;;12.12;57.00
56719;BME280;42597;40.636;0.278;2022-11-22T02:37:11;96640.97;;;12.91;66.04
56719;BME280;42597;40.636;0.278;2022-11-22T02:39:39;96645.84;;;12.41;50.87
56719;BME280;42597;40.636;0.278;2022-11-22T02:42:06;96685.91;;;10.79;51.64
56719;BME280;42597;40.636;0.278;2022-11-22T02:44:32;96670.22;;;12.07;56.94
56719;BME280;42597;40.636;0.278;2022-11-22T02:46:58;96663.59;;;13.50;58.45
56719;BME280;42597;40.636;0.278;2022-11-22T02:49:24;96655.63;;;12.15;53.15
56719;BME280;42597;40.636;0.278;2022-11-22T02:51:51;96639.41;;;12.90;66.51
56719;BME280;42597;40.636;0.278;2022-11-22T02:54:17;96645.19;;;13.80;62.34
56719;BME280;42597;40.636;0.278;2022-11-22T02:56:43;96660.09;;;13.05;57.63
56719;BME280;42597;40.636;0.278;2022-11-22T02:59:09;96649.13;;;12.57;60.19
56719;BME280;42597;40.636;0.278;2022-11-22T03:01:34;96635.88;;;11.61;58.57
56719;BME280;42597;40.636;0.278;2022-11-22T03:04:00;96631.88;;;13.13;60.58
56719;BME280;42597;40.636;0.278;2022-11-22T03:06:26;96609.03;;;13.66;59.86
56719;BME280;42597;40.636;0.278;2022-11-22T03:08:51;96626.06;;;13.63;55.43
56719;BME280;42597;40.636;0.278;2022-11-22T03:11:17;96625.25;;;11.99;48.06
56719;BME280;42597;40.636;0.278;2022-11-22T03:13:42;96623.75;;;13.65;58.77
56719;BME280;42597;40.636;0.278;2022-11-22T03:16:08;96640.09;;;12.79;55.70
56719;BME280;42597;40.636;0.278;2022-11-22T03:18:34;96629.06;;;13.02;57.30
56719;BME280;42597;40.636;0.278;2022-11-22T03:21:05;96617.34;;;12.54;52.73
56719;BME280;42597;40.636;0.278;2022-11-22T03:23:30;96599.78;;;13.77;58.75
56719;BME280;42597;40.636;0.278;2022-11-22T03:25:56;96612.03;;;12.27;56.76
56719;BME280;42597;40.636;0.278;2022-11-22T03:28:22;96605.44;;;13.03;54.09
56719;BME280;42597;40.636;0.278;2022-11-22T03:30:48;96616.63;;;12.57;56.37
56719;BME280;42597;40.636;0.278;2022-11-22T03:33:13;96621.25;;;12.19;49.34
56719;BME280;42597;40.636;0.278;2022-11-22T03:35:39;96607.41;;;13.54;61.79
56719;BME280;42597;40.636;0.278;2022-11-22T03:38:05;96611.13;;;13.31;60.77
56719;BME280;42597;40.636;0.278;2022-11-22T03:40:32;96620.81;;;13.88;61.98
56719;BME280;42597;40.636;0.278;2022-11-22T03:42:59;96615.03;;;13.38;61.09
56719;BME280;42597;40.636;0.278;2022-11-22T03:45:26;96631.94;;;13.68;61.13
56719;BME280;42597;40.636;0.278;2022-11-22T03:47:51;96644.59;;;12.01;49.01
56719;BME280;42597;40.636;0.278;2022-11-22T03:50:17;96649.56;;;11.95;48.77
56719;BME280;42597;40.636;0.278;2022-11-22T03:52:43;96638.03;;;13.06;61.03
56719;BME280;42597;40.636;0.278;2022-11-22T03:55:08;96647.78;;;12.06;50.39
56719;BME280;42597;40.636;0.278;2022-11-22T03:57:34;96625.84;;;13.27;51.58
56719;BME280;42597;40.636;0.278;2022-11-22T03:59:59;96635.75;;;13.12;60.80
56719;BME280;42597;40.636;0.278;2022-11-22T04:02:25;96644.03;;;13.81;61.54
56719;BME280;42597;40.636;0.278;2022-11-22T04:04:50;96654.84;;;12.15;54.17
56719;BME280;42597;40.636;0.278;2022-11-22T04:07:16;96666.47;;;12.86;57.00
56719;BME280;42597;40.636;0.278;2022-11-22T04:09:41;96650.59;;;12.17;48.85
56719;BME280;42597;40.636;0.278;2022-11-22T04:12:07;96658.34;;;12.86;56.44
56719;BME280;42597;40.636;0.278;2022-11-22T04:14:33;96641.91;;;13.09;60.71
56719;BME280;42597;40.636;0.278;2022-11-22T04:17:17;96656.28;;;13.57;57.08
56719;BME280;42597;40.636;0.278;2022-11-22T04:20:09;96644.22;;;13.07;55.30
56719;BME280;42597;40.636;0.278;2022-11-22T04:23:01;96653.19;;;12.74;53.93
56719;BME280;42597;40.636;0.278;2022-11-22T04:25:29;96645.41;;;12.35;53.79
56719;BME280;42597;40.636;0.278;2022-11-22T04:27:56;96670.81;;;12.91;53.52
56719;BME280;42597;40.636;0.278;2022-11-22T04:30:23;96652.84;;;12.75;49.93
56719;BME280;42597;40.636;0.278;2022-11-22T04:33:12;96644.44;;;12.54;60.02
56719;BME280;42597;40.636;0.278;2022-11-22T04:35:39;96651.88;;;13.94;59.03
56719;BME280;42597;40.636;0.278;2022-11-22T04:38:05;96660.41;;;12.96;58.25
56719;BME280;42597;40.636;0.278;2022-11-22T04:40:31;96669.06;;;13.13;57.41
56719;BME280;42597;40.636;0.278;2022-11-22T04:42:57;96644.13;;;12.25;50.25
56719;BME280;42597;40.636;0.278;2022-11-22T04:45:41;96650.31;;;13.38;53.34
56719;BME280;42597;40.636;0.278;2022-11-22T04:48:06;96668.63;;;12.06;46.76
56719;BME280;42597;40.636;0.278;2022-11-22T04:50:32;96661.78;;;12.46;50.19
56719;BME280;42597;40.636;0.278;2022-11-22T04:53:16;96664.19;;;12.21;54.24
56719;BME280;42597;40.636;0.278;2022-11-22T04:55:44;96668.03;;;12.83;49.69
56719;BME280;42597;40.636;0.278;2022-11-22T04:58:11;96609.28;;;14.08;60.24
56719;BME280;42597;40.636;0.278;2022-11-22T05:00:36;96668.31;;;12.75;54.52
56719;BME280;42597;40.636;0.278;2022-11-22T05:03:03;96689.06;;;12.30;56.46
56719;BME280;42597;40.636;0.278;2022-11-22T05:05:29;96652.84;;;12.42;51.31
56719;BME280;42597;40.636;0.278;2022-11-22T05:07:56;96666.06;;;12.17;49.98
56719;BME280;42597;40.636;0.278;2022-11-22T05:10:22;96667.91;;;12.73;47.41
56719;BME280;42597;40.636;0.278;2022-11-22T05:12:48;96658.94;;;12.69;54.23
56719;BME280;42597;40.636;0.278;2022-11-22T05:15:13;96687.09;;;13.31;57.25
56719;BME280;42597;40.636;0.278;2022-11-22T05:17:39;96665.03;;;13.88;55.41
56719;BME280;42597;40.636;0.278;2022-11-22T05:20:05;96680.84;;;12.87;56.47
56719;BME280;42597;40.636;0.278;2022-11-22T05:22:32;96653.59;;;12.39;54.62
56719;BME280;42597;40.636;0.278;2022-11-22T05:25:16;96645.66;;;11.66;45.22
56719;BME280;42597;40.636;0.278;2022-11-22T05:27:41;96630.72;;;12.73;51.79
56719;BME280;42597;40.636;0.278;2022-11-22T05:30:07;96644.44;;;12.54;59.96
56719;BME280;42597;40.636;0.278;2022-11-22T05:32:33;96634.66;;;12.79;52.08
56719;BME280;42597;40.636;0.278;2022-11-22T05:34:59;96647.06;;;12.80;58.23
56719;BME280;42597;40.636;0.278;2022-11-22T05:37:25;96629.06;;;12.99;52.90
56719;BME280;42597;40.636;0.278;2022-11-22T05:39:50;96623.75;;;12.05;47.78
56719;BME280;42597;40.636;0.278;2022-11-22T05:42:16;96629.00;;;12.95;51.08
56719;BME280;42597;40.636;0.278;2022-11-22T05:44:42;96638.69;;;12.96;46.81
56719;BME280;42597;40.636;0.278;2022-11-22T05:47:08;96636.75;;;11.16;49.92
56719;BME280;42597;40.636;0.278;2022-11-22T05:49:34;96666.03;;;10.49;44.05
56719;BME280;42597;40.636;0.278;2022-11-22T05:52:00;96639.06;;;13.36;56.79
56719;BME280;42597;40.636;0.278;2022-11-22T05:54:27;96614.69;;;12.95;54.87
56719;BME280;42597;40.636;0.278;2022-11-22T05:56:53;96654.31;;;13.10;52.65
56719;BME280;42597;40.636;0.278;2022-11-22T05:59:18;96658.63;;;12.40;56.75
56719;BME280;42597;40.636;0.278;2022-11-22T06:01:44;96653.56;;;12.72;55.95
56719;BME280;42597;40.636;0.278;2022-11-22T06:04:10;96653.19;;;13.55;56.63
56719;BME280;42597;40.636;0.278;2022-11-22T06:06:35;96631.28;;;13.34;57.84
56719;BME280;42597;40.636;0.278;2022-11-22T06:09:01;96651.47;;;12.96;50.48
56719;BME280;42597;40.636;0.278;2022-11-22T06:11:27;96671.34;;;13.07;53.00
56719;BME280;42597;40.636;0.278;2022-11-22T06:14:00;96617.13;;;13.55;51.66
56719;BME280;42597;40.636;0.278;2022-11-22T06:16:28;96635.50;;;12.16;46.36
56719;BME280;42597;40.636;0.278;2022-11-22T06:18:54;96666.13;;;12.20;51.06
56719;BME280;42597;40.636;0.278;2022-11-22T06:21:21;96697.06;;;11.93;47.81
56719;BME280;42597;40.636;0.278;2022-11-22T06:23:53;96650.06;;;11.05;46.16
56719;BME280;42597;40.636;0.278;2022-11-22T06:26:20;96672.19;;;12.40;58.31
56719;BME280;42597;40.636;0.278;2022-11-22T06:28:47;96679.56;;;13.18;58.19
56719;BME280;42597;40.636;0.278;2022-11-22T06:31:20;96678.94;;;12.23;44.94
56719;BME280;42597;40.636;0.278;2022-11-22T06:33:47;96676.47;;;12.11;55.28
56719;BME280;42597;40.636;0.278;2022-11-22T06:36:21;96671.81;;;12.12;53.29
56719;BME280;42597;40.636;0.278;2022-11-22T06:38:47;96698.13;;;12.11;52.29
56719;BME280;42597;40.636;0.278;2022-11-22T06:41:18;96710.28;;;12.54;58.32
56719;BME280;42597;40.636;0.278;2022-11-22T06:43:45;96699.34;;;11.64;45.40
56719;BME280;42597;40.636;0.278;2022-11-22T06:46:11;96717.47;;;12.13;49.56
56719;BME280;42597;40.636;0.278;2022-11-22T06:48:39;96708.25;;;13.56;58.05
56719;BME280;42597;40.636;0.278;2022-11-22T06:53:35;96732.72;;;12.85;58.24
56719;BME280;42597;40.636;0.278;2022-11-22T06:56:06;96727.94;;;11.65;48.71
56719;BME280;42597;40.636;0.278;2022-11-22T06:58:32;96725.97;;;11.85;60.19
56719;BME280;42597;40.636;0.278;2022-11-22T07:01:01;96726.75;;;13.09;47.09
56719;BME280;42597;40.636;0.278;2022-11-22T07:03:27;96697.44;;;13.67;57.76
56719;BME280;42597;40.636;0.278;2022-11-22T07:05:53;96741.13;;;12.16;46.40
56719;BME280;42597;40.636;0.278;2022-11-22T07:08:19;96727.00;;;12.60;47.05
56719;BME280;42597;40.636;0.278;2022-11-22T07:10:45;96747.19;;;10.36;44.76
56719;BME280;42597;40.636;0.278;2022-11-22T07:13:10;96744.03;;;11.81;57.31
56719;BME280;42597;40.636;0.278;2022-11-22T07:15:36;96756.31;;;12.84;60.37
56719;BME280;42597;40.636;0.278;2022-11-22T07:18:02;96748.72;;;12.97;57.31
56719;BME280;42597;40.636;0.278;2022-11-22T07:20:27;96761.22;;;11.00;52.43
56719;BME280;42597;40.636;0.278;2022-11-22T07:22:53;96733.91;;;11.28;50.14
56719;BME280;42597;40.636;0.278;2022-11-22T07:25:19;96773.66;;;13.10;54.74
56719;BME280;42597;40.636;0.278;2022-11-22T07:27:44;96753.63;;;11.52;48.30
56719;BME280;42597;40.636;0.278;2022-11-22T07:30:10;96776.56;;;12.91;57.78
56719;BME280;42597;40.636;0.278;2022-11-22T07:32:36;96778.78;;;10.52;44.98
56719;BME280;42597;40.636;0.278;2022-11-22T07:35:02;96788.63;;;11.64;51.65
56719;BME280;42597;40.636;0.278;2022-11-22T07:37:30;96784.66;;;11.35;45.89
56719;BME280;42597;40.636;0.278;2022-11-22T07:39:56;96778.03;;;11.32;58.28
56719;BME280;42597;40.636;0.278;2022-11-22T07:42:21;96801.84;;;10.14;43.95
56719;BME280;42597;40.636;0.278;2022-11-22T07:44:47;96799.53;;;10.48;54.55
56719;BME280;42597;40.636;0.278;2022-11-22T07:47:13;96782.56;;;13.85;57.44
56719;BME280;42597;40.636;0.278;2022-11-22T07:49:38;96793.88;;;11.99;43.87
56719;BME280;42597;40.636;0.278;2022-11-22T07:52:04;96783.34;;;12.77;53.14
56719;BME280;42597;40.636;0.278;2022-11-22T07:54:30;96793.19;;;11.60;51.27
56719;BME280;42597;40.636;0.278;2022-11-22T07:56:56;96803.13;;;11.10;45.56
56719;BME280;42597;40.636;0.278;2022-11-22T07:59:21;96811.25;;;11.75;50.04
56719;BME280;42597;40.636;0.278;2022-11-22T08:01:47;96809.94;;;11.89;60.41
56719;BME280;42597;40.636;0.278;2022-11-22T08:04:13;96805.41;;;10.34;44.68
56719;BME280;42597;40.636;0.278;2022-11-22T08:06:39;96813.16;;;10.35;45.79
56719;BME280;42597;40.636;0.278;2022-11-22T08:09:04;96822.03;;;9.88;45.96
56719;BME280;42597;40.636;0.278;2022-11-22T08:11:30;96813.56;;;10.53;44.58
56719;BME280;42597;40.636;0.278;2022-11-22T08:13:56;96820.66;;;12.57;62.07
56719;BME280;42597;40.636;0.278;2022-11-22T08:16:22;96839.44;;;10.54;44.19
56719;BME280;42597;40.636;0.278;2022-11-22T08:18:49;96855.47;;;10.00;44.41
56719;BME280;42597;40.636;0.278;2022-11-22T08:21:16;96851.63;;;10.01;45.49
56719;BME280;42597;40.636;0.278;2022-11-22T08:23:43;96849.00;;;9.73;47.71
56719;BME280;42597;40.636;0.278;2022-11-22T08:26:11;96845.88;;;10.50;59.82
56719;BME280;42597;40.636;0.278;2022-11-22T08:28:38;96860.78;;;10.12;45.10
56719;BME280;42597;40.636;0.278;2022-11-22T08:31:10;96883.16;;;9.65;45.86
56719;BME280;42597;40.636;0.278;2022-11-22T08:33:36;96857.06;;;13.50;52.62
56719;BME280;42597;40.636;0.278;2022-11-22T08:36:02;96872.75;;;11.17;48.15
56719;BME280;42597;40.636;0.278;2022-11-22T08:38:28;96869.94;;;10.23;45.85
56719;BME280;42597;40.636;0.278;2022-11-22T08:40:54;96872.41;;;9.69;46.61
56719;BME280;42597;40.636;0.278;2022-11-22T08:43:20;96877.78;;;9.81;47.24
56719;BME280;42597;40.636;0.278;2022-11-22T08:45:48;96865.56;;;11.05;54.54
56719;BME280;42597;40.636;0.278;2022-11-22T08:48:17;96861.38;;;11.69;47.49
56719;BME280;42597;40.636;0.278;2022-11-22T08:50:55;96871.41;;;10.05;45.64
56719;BME280;42597;40.636;0.278;2022-11-22T08:53:21;96866.81;;;10.72;58.95
56719;BME280;42597;40.636;0.278;2022-11-22T08:55:47;96862.22;;;12.16;50.40
56719;BME280;42597;40.636;0.278;2022-11-22T08:58:13;96869.97;;;11.13;46.37
56719;BME280;42597;40.636;0.278;2022-11-22T09:00:39;96863.94;;;10.65;56.19
56719;BME280;42597;40.636;0.278;2022-11-22T09:03:04;96843.59;;;12.64;57.70
56719;BME280;42597;40.636;0.278;2022-11-22T09:05:30;96839.97;;;12.03;58.69
56719;BME280;42597;40.636;0.278;2022-11-22T09:07:57;96841.72;;;9.73;46.80
56719;BME280;42597;40.636;0.278;2022-11-22T09:10:23;96839.28;;;10.31;46.27
56719;BME280;42597;40.636;0.278;2022-11-22T09:12:48;96854.00;;;10.02;46.24
56719;BME280;42597;40.636;0.278;2022-11-22T09:15:14;96859.91;;;9.92;44.13
56719;BME280;42597;40.636;0.278;2022-11-22T09:17:42;96860.56;;;10.68;47.13
56719;BME280;42597;40.636;0.278;2022-11-22T09:20:08;96851.81;;;10.40;46.87
56719;BME280;42597;40.636;0.278;2022-11-22T09:22:34;96838.59;;;10.03;46.17
56719;BME280;42597;40.636;0.278;2022-11-22T09:25:00;96836.41;;;10.08;49.62
56719;BME280;42597;40.636;0.278;2022-11-22T09:27:26;96840.75;;;10.29;46.75
56719;BME280;42597;40.636;0.278;2022-11-22T09:29:51;96848.53;;;10.30;48.28
56719;BME280;42597;40.636;0.278;2022-11-22T09:32:17;96839.97;;;10.28;51.40
56719;BME280;42597;40.636;0.278;2022-11-22T09:34:43;96840.84;;;10.01;47.72
56719;BME280;42597;40.636;0.278;2022-11-22T09:37:08;96824.38;;;12.19;63.75
56719;BME280;42597;40.636;0.278;2022-11-22T09:39:34;96829.28;;;10.67;52.08
56719;BME280;42597;40.636;0.278;2022-11-22T09:43:01;96822.47;;;12.50;62.32
56719;BME280;42597;40.636;0.278;2022-11-22T09:50:49;96817.81;;;11.97;45.74
56719;BME280;42597;40.636;0.278;2022-11-22T09:53:24;96828.25;;;12.75;53.67
56719;BME280;42597;40.636;0.278;2022-11-22T09:55:59;96835.25;;;11.34;43.72
56719;BME280;42597;40.636;0.278;2022-11-22T09:58:46;96837.63;;;11.59;42.84
56719;BME280;42597;40.636;0.278;2022-11-22T10:01:42;96832.13;;;11.32;42.98
56719;BME280;42597;40.636;0.278;2022-11-22T10:04:14;96828.66;;;12.47;45.88
56719;BME280;42597;40.636;0.278;2022-11-22T10:06:48;96826.38;;;11.57;44.69
56719;BME280;42597;40.636;0.278;2022-11-22T10:09:38;96824.50;;;12.03;43.36
56719;BME280;42597;40.636;0.278;2022-11-22T10:12:10;96811.75;;;12.04;43.46
56719;BME280;42597;40.636;0.278;2022-11-22T10:14:47;96829.19;;;12.06;47.88
56719;BME280;42597;40.636;0.278;2022-11-22T10:20:06;96839.72;;;13.99;53.82
56719;BME280;42597;40.636;0.278;2022-11-22T10:22:32;96849.75;;;12.91;42.90
56719;BME280;42597;40.636;0.278;2022-11-22T10:25:03;96862.41;;;12.53;44.98
56719;BME280;42597;40.636;0.278;2022-11-22T10:27:31;96858.47;;;12.24;44.01
56719;BME280;42597;40.636;0.278;2022-11-22T10:30:02;96855.31;;;12.45;43.36
56719;BME280;42597;40.636;0.278;2022-11-22T10:32:37;96861.09;;;12.43;43.53
56719;BME280;42597;40.636;0.278;2022-11-22T10:40:53;96827.09;;;12.76;42.68
56719;BME280;42597;40.636;0.278;2022-11-22T10:49:36;96818.31;;;12.29;41.12
56719;BME280;42597;40.636;0.278;2022-11-22T10:52:25;96811.91;;;13.31;43.51
56719;BME280;42597;40.636;0.278;2022-11-22T11:00:20;96822.81;;;13.39;51.49
56719;BME280;42597;40.636;0.278;2022-11-22T11:09:03;96806.34;;;13.21;42.37
56719;BME280;42597;40.636;0.278;2022-11-22T11:11:09;96827.50;;;12.78;40.80
56719;BME280;42597;40.636;0.278;2022-11-22T11:13:42;96828.03;;;13.21;42.05
56719;BME280;42597;40.636;0.278;2022-11-22T11:16:13;96821.59;;;12.99;41.07
56719;BME280;42597;40.636;0.278;2022-11-22T11:18:56;96834.56;;;13.16;41.98
56719;BME280;42597;40.636;0.278;2022-11-22T11:21:22;96807.09;;;13.21;42.94
56719;BME280;42597;40.636;0.278;2022-11-22T11:23:50;96808.09;;;14.28;56.07
56719;BME280;42597;40.636;0.278;2022-11-22T11:26:26;96798.94;;;12.84;44.22
56719;BME280;42597;40.636;0.278;2022-11-22T11:31:46;96782.72;;;12.88;42.17
56719;BME280;42597;40.636;0.278;2022-11-22T11:34:20;96784.84;;;13.39;45.86
56719;BME280;42597;40.636;0.278;2022-11-22T11:36:48;96786.25;;;13.25;45.18
56719;BME280;42597;40.636;0.278;2022-11-22T11:39:22;96769.66;;;13.71;50.67
56719;BME280;42597;40.636;0.278;2022-11-22T11:41:48;96776.63;;;13.72;46.76
56719;BME280;42597;40.636;0.278;2022-11-22T11:44:35;96767.25;;;13.25;42.46
56719;BME280;42597;40.636;0.278;2022-11-22T11:47:02;96758.25;;;13.18;42.23
56719;BME280;42597;40.636;0.278;2022-11-22T11:49:30;96754.97;;;13.01;41.90
56719;BME280;42597;40.636;0.278;2022-11-22T11:52:19;96755.31;;;13.33;44.54
56719;BME280;42597;40.636;0.278;2022-11-22T11:54:49;96746.75;;;13.28;42.72
56719;BME280;42597;40.636;0.278;2022-11-22T11:57:30;96768.34;;;13.21;41.81
56719;BME280;42597;40.636;0.278;2022-11-22T11:59:59;96758.63;;;13.53;52.94
56719;BME280;42597;40.636;0.278;2022-11-22T12:02:34;96725.25;;;13.49;45.17
56719;BME280;42597;40.636;0.278;2022-11-22T12:07:49;96735.59;;;14.47;51.55
56719;BME280;42597;40.636;0.278;2022-11-22T12:21:17;96694.66;;;14.15;49.15
56719;BME280;42597;40.636;0.278;2022-11-22T12:24:05;96715.31;;;13.68;44.46
56719;BME280;42597;40.636;0.278;2022-11-22T12:26:31;96712.06;;;14.76;55.40
56719;BME280;42597;40.636;0.278;2022-11-22T12:28:57;96723.41;;;14.16;47.33
56719;BME280;42597;40.636;0.278;2022-11-22T12:34:21;96705.88;;;14.75;55.25
56719;BME280;42597;40.636;0.278;2022-11-22T12:39:36;96711.91;;;14.44;50.41
56719;BME280;42597;40.636;0.278;2022-11-22T12:42:12;96708.91;;;14.56;54.83
56719;BME280;42597;40.636;0.278;2022-11-22T12:44:43;96697.84;;;13.65;43.60
56719;BME280;42597;40.636;0.278;2022-11-22T12:47:21;96715.31;;;14.26;51.05
56719;BME280;42597;40.636;0.278;2022-11-22T12:50:06;96701.38;;;14.35;54.56
56719;BME280;42597;40.636;0.278;2022-11-22T12:55:07;96698.78;;;14.53;52.65
56719;BME280;42597;40.636;0.278;2022-11-22T13:00:13;96707.47;;;14.14;46.50
56719;BME280;42597;40.636;0.278;2022-11-22T13:03:02;96707.81;;;14.82;54.60
56719;BME280;42597;40.636;0.278;2022-11-22T13:05:50;96693.13;;;14.17;47.25
56719;BME280;42597;40.636;0.278;2022-11-22T13:08:30;96713.91;;;13.88;49.47
56719;BME280;42597;40.636;0.278;2022-11-22T13:11:14;96701.13;;;14.58;52.30
56719;BME280;42597;40.636;0.278;2022-11-22T13:13:47;96704.63;;;13.93;44.37
56719;BME280;42597;40.636;0.278;2022-11-22T13:16:15;96685.34;;;14.12;53.91
56719;BME280;42597;40.636;0.278;2022-11-22T13:19:04;96704.78;;;14.18;50.13
56719;BME280;42597;40.636;0.278;2022-11-22T13:29:27;96700.78;;;14.74;46.66
56719;BME280;42597;40.636;0.278;2022-11-22T13:34:38;96687.13;;;14.49;46.49
56719;BME280;42597;40.636;0.278;2022-11-22T13:37:14;96693.38;;;14.67;48.03
56719;BME280;42597;40.636;0.278;2022-11-22T13:39:47;96687.25;;;14.92;43.51
56719;BME280;42597;40.636;0.278;2022-11-22T13:42:17;96697.69;;;14.72;47.46
56719;BME280;42597;40.636;0.278;2022-11-22T13:49:47;96686.34;;;14.52;47.22
56719;BME280;42597;40.636;0.278;2022-11-22T14:05:52;96684.53;;;15.02;49.91
56719;BME280;42597;40.636;0.278;2022-11-22T14:08:35;96643.78;;;15.42;47.83
56719;BME280;42597;40.636;0.278;2022-11-22T14:11:12;96675.53;;;14.73;47.30
56719;BME280;42597;40.636;0.278;2022-11-22T14:16:53;96668.59;;;14.79;47.97
56719;BME280;42597;40.636;0.278;2022-11-22T14:19:33;96671.72;;;14.96;45.62
56719;BME280;42597;40.636;0.278;2022-11-22T14:25:44;96682.66;;;15.39;44.43
56719;BME280;42597;40.636;0.278;2022-11-22T14:30:20;96670.28;;;14.25;42.94
56719;BME280;42597;40.636;0.278;2022-11-22T14:33:00;96661.53;;;14.64;46.13
56719;BME280;42597;40.636;0.278;2022-11-22T14:38:03;96644.56;;;15.67;48.51
56719;BME280;42597;40.636;0.278;2022-11-22T14:43:00;96641.72;;;14.67;44.14
56719;BME280;42597;40.636;0.278;2022-11-22T14:45:42;96629.75;;;15.50;52.17
56719;BME280;42597;40.636;0.278;2022-11-22T14:48:16;96638.31;;;15.06;44.57
56719;BME280;42597;40.636;0.278;2022-11-22T14:50:50;96644.03;;;14.58;43.68
56719;BME280;42597;40.636;0.278;2022-11-22T14:53:35;96658.53;;;15.05;45.15
56719;BME280;42597;40.636;0.278;2022-11-22T14:56:13;96671.75;;;15.24;47.27
56719;BME280;42597;40.636;0.278;2022-11-22T14:58:50;96675.66;;;15.20;44.07